sensor_id;sensor_type;location;lat;lon;timestamp;temperature;humidity
44215;DHT22;29884;47.450;19.124;2023-05-07T00:00:00;15.90;99.90
44215;DHT22;29884;47.450;19.124;2023-05-07T00:02:26;15.90;99.90
44215;DHT22;29884;47.450;19.124;2023-05-07T00:04:52;15.90;99.90
44215;DHT22;29884;47.450;19.124;2023-05-07T00:07:18;16.00;99.90
44215;DHT22;29884;47.450;19.124;2023-05-07T00:09:44;16.00;99.90
44215;DHT22;29884;47.450;19.124;2023-05-07T00:12:10;15.90;99.90
44215;DHT22;29884;47.450;19.124;2023-05-07T00:14:36;15.90;99.90
44215;DHT22;29884;47.450;19.124;2023-05-07T00:17:02;16.00;99.90
44215;DHT22;29884;47.450;19.124;2023-05-07T00:19:27;16.00;99.90
44215;DHT22;29884;47.450;19.124;2023-05-07T00:21:53;15.90;99.90
44215;DHT22;29884;47.450;19.124;2023-05-07T00:24:19;15.90;99.90
44215;DHT22;29884;47.450;19.124;2023-05-07T00:26:45;15.90;99.90
44215;DHT22;29884;47.450;19.124;2023-05-07T00:29:11;15.90;99.90
44215;DHT22;29884;47.450;19.124;2023-05-07T00:31:37;15.90;99.90
44215;DHT22;29884;47.450;19.124;2023-05-07T00:34:03;15.90;99.90
44215;DHT22;29884;47.450;19.124;2023-05-07T00:36:28;15.90;99.90
44215;DHT22;29884;47.450;19.124;2023-05-07T00:38:56;15.90;99.90
44215;DHT22;29884;47.450;19.124;2023-05-07T00:41:22;15.80;99.90
44215;DHT22;29884;47.450;19.124;2023-05-07T00:43:48;15.70;99.90
44215;DHT22;29884;47.450;19.124;2023-05-07T00:46:13;15.70;99.90
44215;DHT22;29884;47.450;19.124;2023-05-07T00:48:41;15.70;99.90
44215;DHT22;29884;47.450;19.124;2023-05-07T00:51:06;15.60;99.90
44215;DHT22;29884;47.450;19.124;2023-05-07T00:53:32;15.60;99.90
44215;DHT22;29884;47.450;19.124;2023-05-07T00:55:58;15.60;99.90
44215;DHT22;29884;47.450;19.124;2023-05-07T00:58:26;15.50;99.90
44215;DHT22;29884;47.450;19.124;2023-05-07T01:00:52;15.40;99.90
44215;DHT22;29884;47.450;19.124;2023-05-07T01:03:18;15.40;99.90
44215;DHT22;29884;47.450;19.124;2023-05-07T01:05:45;15.40;99.90
44215;DHT22;29884;47.450;19.124;2023-05-07T01:08:11;15.40;99.90
44215;DHT22;29884;47.450;19.124;2023-05-07T01:10:38;15.30;99.90
44215;DHT22;29884;47.450;19.124;2023-05-07T01:13:09;15.20;99.90
44215;DHT22;29884;47.450;19.124;2023-05-07T01:15:36;15.20;99.90
44215;DHT22;29884;47.450;19.124;2023-05-07T01:18:02;15.20;99.90
44215;DHT22;29884;47.450;19.124;2023-05-07T01:20:28;15.10;99.90
44215;DHT22;29884;47.450;19.124;2023-05-07T01:22:54;15.20;99.90
44215;DHT22;29884;47.450;19.124;2023-05-07T01:25:21;15.20;99.90
44215;DHT22;29884;47.450;19.124;2023-05-07T01:27:47;15.20;99.90
44215;DHT22;29884;47.450;19.124;2023-05-07T01:30:13;15.20;99.90
44215;DHT22;29884;47.450;19.124;2023-05-07T01:32:45;15.20;99.90
44215;DHT22;29884;47.450;19.124;2023-05-07T01:35:18;15.20;99.90
44215;DHT22;29884;47.450;19.124;2023-05-07T01:37:45;15.10;99.90
44215;DHT22;29884;47.450;19.124;2023-05-07T01:40:11;15.10;99.90
44215;DHT22;29884;47.450;19.124;2023-05-07T01:42:37;15.10;99.90
44215;DHT22;29884;47.450;19.124;2023-05-07T01:45:03;15.10;99.90
44215;DHT22;29884;47.450;19.124;2023-05-07T01:47:30;15.00;99.90
44215;DHT22;29884;47.450;19.124;2023-05-07T01:49:56;15.00;99.90
44215;DHT22;29884;47.450;19.124;2023-05-07T01:52:22;15.00;99.90
44215;DHT22;29884;47.450;19.124;2023-05-07T01:54:48;14.80;99.90
44215;DHT22;29884;47.450;19.124;2023-05-07T01:57:14;14.80;99.90
44215;DHT22;29884;47.450;19.124;2023-05-07T01:59:39;14.70;99.90
44215;DHT22;29884;47.450;19.124;2023-05-07T02:02:05;14.70;99.90
44215;DHT22;29884;47.450;19.124;2023-05-07T02:04:31;14.70;99.90
44215;DHT22;29884;47.450;19.124;2023-05-07T02:06:57;14.70;99.90
44215;DHT22;29884;47.450;19.124;2023-05-07T02:09:22;14.70;99.90
44215;DHT22;29884;47.450;19.124;2023-05-07T02:11:49;14.70;99.90
44215;DHT22;29884;47.450;19.124;2023-05-07T02:14:14;14.60;99.90
44215;DHT22;29884;47.450;19.124;2023-05-07T02:16:41;14.60;99.90
44215;DHT22;29884;47.450;19.124;2023-05-07T02:19:07;14.50;99.90
44215;DHT22;29884;47.450;19.124;2023-05-07T02:21:33;14.50;99.90
44215;DHT22;29884;47.450;19.124;2023-05-07T02:23:58;14.40;99.90
44215;DHT22;29884;47.450;19.124;2023-05-07T02:26:24;14.40;99.90
44215;DHT22;29884;47.450;19.124;2023-05-07T02:28:51;14.40;99.90
44215;DHT22;29884;47.450;19.124;2023-05-07T02:31:17;14.30;99.90
44215;DHT22;29884;47.450;19.124;2023-05-07T02:33:43;14.20;99.90
44215;DHT22;29884;47.450;19.124;2023-05-07T02:36:11;14.20;99.90
44215;DHT22;29884;47.450;19.124;2023-05-07T02:38:37;14.20;99.90
44215;DHT22;29884;47.450;19.124;2023-05-07T02:41:03;14.10;99.90
44215;DHT22;29884;47.450;19.124;2023-05-07T02:43:29;14.00;99.90
44215;DHT22;29884;47.450;19.124;2023-05-07T02:46:05;13.90;99.90
44215;DHT22;29884;47.450;19.124;2023-05-07T02:48:31;13.90;99.90
44215;DHT22;29884;47.450;19.124;2023-05-07T02:50:58;13.90;99.90
44215;DHT22;29884;47.450;19.124;2023-05-07T02:53:24;13.90;99.90
44215;DHT22;29884;47.450;19.124;2023-05-07T02:55:52;13.90;99.90
44215;DHT22;29884;47.450;19.124;2023-05-07T02:58:18;13.80;99.90
44215;DHT22;29884;47.450;19.124;2023-05-07T03:00:44;13.80;99.90
44215;DHT22;29884;47.450;19.124;2023-05-07T03:03:10;13.80;99.90
44215;DHT22;29884;47.450;19.124;2023-05-07T03:05:36;13.80;99.90
44215;DHT22;29884;47.450;19.124;2023-05-07T03:08:02;13.70;99.90
44215;DHT22;29884;47.450;19.124;2023-05-07T03:10:29;13.70;99.90
44215;DHT22;29884;47.450;19.124;2023-05-07T03:12:55;13.70;99.90
44215;DHT22;29884;47.450;19.124;2023-05-07T03:15:21;13.70;99.90
44215;DHT22;29884;47.450;19.124;2023-05-07T03:17:47;13.70;99.90
44215;DHT22;29884;47.450;19.124;2023-05-07T03:20:13;13.70;99.90
44215;DHT22;29884;47.450;19.124;2023-05-07T03:22:39;13.80;99.90
44215;DHT22;29884;47.450;19.124;2023-05-07T03:25:06;13.80;99.90
44215;DHT22;29884;47.450;19.124;2023-05-07T03:27:31;13.70;99.90
44215;DHT22;29884;47.450;19.124;2023-05-07T03:29:57;13.70;99.90
44215;DHT22;29884;47.450;19.124;2023-05-07T03:32:23;13.80;99.90
44215;DHT22;29884;47.450;19.124;2023-05-07T03:34:49;13.80;99.90
44215;DHT22;29884;47.450;19.124;2023-05-07T03:37:15;13.80;99.90
44215;DHT22;29884;47.450;19.124;2023-05-07T03:39:40;13.80;99.90
44215;DHT22;29884;47.450;19.124;2023-05-07T03:42:06;13.90;99.90
44215;DHT22;29884;47.450;19.124;2023-05-07T03:44:32;13.90;99.90
44215;DHT22;29884;47.450;19.124;2023-05-07T03:46:58;13.90;99.90
44215;DHT22;29884;47.450;19.124;2023-05-07T03:49:24;14.00;99.90
44215;DHT22;29884;47.450;19.124;2023-05-07T03:51:49;14.00;99.90
44215;DHT22;29884;47.450;19.124;2023-05-07T03:54:15;14.00;99.90
44215;DHT22;29884;47.450;19.124;2023-05-07T03:56:41;14.10;99.90
44215;DHT22;29884;47.450;19.124;2023-05-07T03:59:07;14.10;99.90
44215;DHT22;29884;47.450;19.124;2023-05-07T04:01:33;14.20;99.90
44215;DHT22;29884;47.450;19.124;2023-05-07T04:03:58;14.20;99.90
44215;DHT22;29884;47.450;19.124;2023-05-07T04:06:24;14.20;99.90
44215;DHT22;29884;47.450;19.124;2023-05-07T04:08:50;14.20;99.90
44215;DHT22;29884;47.450;19.124;2023-05-07T04:11:16;14.20;99.90
44215;DHT22;29884;47.450;19.124;2023-05-07T04:13:41;14.20;99.90
44215;DHT22;29884;47.450;19.124;2023-05-07T04:16:08;14.30;99.90
44215;DHT22;29884;47.450;19.124;2023-05-07T04:18:33;14.30;99.90
44215;DHT22;29884;47.450;19.124;2023-05-07T04:20:59;14.30;99.90
44215;DHT22;29884;47.450;19.124;2023-05-07T04:23:25;14.30;99.90
44215;DHT22;29884;47.450;19.124;2023-05-07T04:25:50;14.30;99.90
44215;DHT22;29884;47.450;19.124;2023-05-07T04:28:17;14.30;99.90
44215;DHT22;29884;47.450;19.124;2023-05-07T04:30:43;14.30;99.90
44215;DHT22;29884;47.450;19.124;2023-05-07T04:33:08;14.30;99.90
44215;DHT22;29884;47.450;19.124;2023-05-07T04:35:35;14.30;99.90
44215;DHT22;29884;47.450;19.124;2023-05-07T04:38:01;14.30;99.90
44215;DHT22;29884;47.450;19.124;2023-05-07T04:40:27;14.30;99.90
44215;DHT22;29884;47.450;19.124;2023-05-07T04:42:52;14.40;99.90
44215;DHT22;29884;47.450;19.124;2023-05-07T04:45:18;14.50;99.90
44215;DHT22;29884;47.450;19.124;2023-05-07T04:47:44;14.50;99.90
44215;DHT22;29884;47.450;19.124;2023-05-07T04:50:10;14.70;99.90
44215;DHT22;29884;47.450;19.124;2023-05-07T04:52:36;14.70;99.90
44215;DHT22;29884;47.450;19.124;2023-05-07T04:55:02;14.80;99.90
44215;DHT22;29884;47.450;19.124;2023-05-07T04:57:28;14.90;99.90
44215;DHT22;29884;47.450;19.124;2023-05-07T04:59:54;15.00;99.90
44215;DHT22;29884;47.450;19.124;2023-05-07T05:02:20;15.20;99.90
44215;DHT22;29884;47.450;19.124;2023-05-07T05:04:45;15.30;99.90
44215;DHT22;29884;47.450;19.124;2023-05-07T05:07:11;15.40;99.90
44215;DHT22;29884;47.450;19.124;2023-05-07T05:09:37;15.50;99.90
44215;DHT22;29884;47.450;19.124;2023-05-07T05:12:03;15.50;99.90
44215;DHT22;29884;47.450;19.124;2023-05-07T05:14:29;15.50;99.90
44215;DHT22;29884;47.450;19.124;2023-05-07T05:16:55;15.60;99.90
44215;DHT22;29884;47.450;19.124;2023-05-07T05:19:20;15.70;99.90
44215;DHT22;29884;47.450;19.124;2023-05-07T05:21:46;15.70;99.90
44215;DHT22;29884;47.450;19.124;2023-05-07T05:24:12;15.70;99.90
44215;DHT22;29884;47.450;19.124;2023-05-07T05:26:38;15.80;99.90
44215;DHT22;29884;47.450;19.124;2023-05-07T05:29:03;15.90;99.90
44215;DHT22;29884;47.450;19.124;2023-05-07T05:31:29;15.90;99.90
44215;DHT22;29884;47.450;19.124;2023-05-07T05:33:55;16.00;99.90
44215;DHT22;29884;47.450;19.124;2023-05-07T05:36:21;16.00;99.90
44215;DHT22;29884;47.450;19.124;2023-05-07T05:38:47;16.10;99.90
44215;DHT22;29884;47.450;19.124;2023-05-07T05:41:12;16.20;99.90
44215;DHT22;29884;47.450;19.124;2023-05-07T05:43:38;16.30;99.90
44215;DHT22;29884;47.450;19.124;2023-05-07T05:46:04;16.40;99.90
44215;DHT22;29884;47.450;19.124;2023-05-07T05:48:30;16.40;99.90
44215;DHT22;29884;47.450;19.124;2023-05-07T05:50:56;16.50;99.90
44215;DHT22;29884;47.450;19.124;2023-05-07T05:53:21;16.70;99.90
44215;DHT22;29884;47.450;19.124;2023-05-07T05:55:47;16.80;99.90
44215;DHT22;29884;47.450;19.124;2023-05-07T05:58:13;16.90;99.90
44215;DHT22;29884;47.450;19.124;2023-05-07T06:00:40;17.00;99.90
44215;DHT22;29884;47.450;19.124;2023-05-07T06:03:06;17.10;99.90
44215;DHT22;29884;47.450;19.124;2023-05-07T06:05:32;17.30;99.90
44215;DHT22;29884;47.450;19.124;2023-05-07T06:07:58;17.40;99.90
44215;DHT22;29884;47.450;19.124;2023-05-07T06:10:23;17.50;99.90
44215;DHT22;29884;47.450;19.124;2023-05-07T06:12:49;17.40;99.90
44215;DHT22;29884;47.450;19.124;2023-05-07T06:15:15;17.40;99.90
44215;DHT22;29884;47.450;19.124;2023-05-07T06:17:41;17.40;99.90
44215;DHT22;29884;47.450;19.124;2023-05-07T06:20:07;17.50;99.90
44215;DHT22;29884;47.450;19.124;2023-05-07T06:22:33;17.60;99.90
44215;DHT22;29884;47.450;19.124;2023-05-07T06:24:58;17.80;99.90
44215;DHT22;29884;47.450;19.124;2023-05-07T06:27:24;17.80;99.90
44215;DHT22;29884;47.450;19.124;2023-05-07T06:29:50;17.90;99.90
44215;DHT22;29884;47.450;19.124;2023-05-07T06:32:16;18.00;99.90
44215;DHT22;29884;47.450;19.124;2023-05-07T06:34:42;18.00;99.90
44215;DHT22;29884;47.450;19.124;2023-05-07T06:37:08;18.10;99.90
44215;DHT22;29884;47.450;19.124;2023-05-07T06:39:34;18.20;99.90
44215;DHT22;29884;47.450;19.124;2023-05-07T06:42:00;18.40;99.90
44215;DHT22;29884;47.450;19.124;2023-05-07T06:44:27;18.60;99.90
44215;DHT22;29884;47.450;19.124;2023-05-07T06:46:53;18.70;99.90
44215;DHT22;29884;47.450;19.124;2023-05-07T06:49:18;18.80;99.90
44215;DHT22;29884;47.450;19.124;2023-05-07T06:51:44;18.70;99.90
44215;DHT22;29884;47.450;19.124;2023-05-07T06:54:10;18.80;99.90
44215;DHT22;29884;47.450;19.124;2023-05-07T06:56:36;19.00;99.90
44215;DHT22;29884;47.450;19.124;2023-05-07T06:59:02;19.00;99.90
44215;DHT22;29884;47.450;19.124;2023-05-07T07:01:28;18.90;99.90
44215;DHT22;29884;47.450;19.124;2023-05-07T07:03:54;18.90;99.90
44215;DHT22;29884;47.450;19.124;2023-05-07T07:06:20;19.10;99.90
44215;DHT22;29884;47.450;19.124;2023-05-07T07:08:46;19.30;99.90
44215;DHT22;29884;47.450;19.124;2023-05-07T07:11:11;19.60;99.90
44215;DHT22;29884;47.450;19.124;2023-05-07T07:13:37;19.70;99.90
44215;DHT22;29884;47.450;19.124;2023-05-07T07:16:03;19.70;99.90
44215;DHT22;29884;47.450;19.124;2023-05-07T07:18:29;19.70;99.90
44215;DHT22;29884;47.450;19.124;2023-05-07T07:20:55;19.70;99.90
44215;DHT22;29884;47.450;19.124;2023-05-07T07:23:21;19.70;99.90
44215;DHT22;29884;47.450;19.124;2023-05-07T07:25:47;19.80;99.90
44215;DHT22;29884;47.450;19.124;2023-05-07T07:28:13;19.90;99.90
44215;DHT22;29884;47.450;19.124;2023-05-07T07:30:38;20.00;99.90
44215;DHT22;29884;47.450;19.124;2023-05-07T07:33:05;20.10;99.90
44215;DHT22;29884;47.450;19.124;2023-05-07T07:35:34;20.10;99.90
44215;DHT22;29884;47.450;19.124;2023-05-07T07:38:00;20.20;99.90
44215;DHT22;29884;47.450;19.124;2023-05-07T07:40:27;20.30;99.90
44215;DHT22;29884;47.450;19.124;2023-05-07T07:42:53;20.40;99.90
44215;DHT22;29884;47.450;19.124;2023-05-07T07:45:19;20.60;99.90
44215;DHT22;29884;47.450;19.124;2023-05-07T07:47:45;20.90;99.90
44215;DHT22;29884;47.450;19.124;2023-05-07T07:50:11;20.90;99.90
44215;DHT22;29884;47.450;19.124;2023-05-07T07:52:37;20.80;99.90
44215;DHT22;29884;47.450;19.124;2023-05-07T07:55:03;20.70;99.90
44215;DHT22;29884;47.450;19.124;2023-05-07T07:57:30;20.70;99.90
44215;DHT22;29884;47.450;19.124;2023-05-07T07:59:55;20.80;99.90
44215;DHT22;29884;47.450;19.124;2023-05-07T08:02:21;20.70;99.90
44215;DHT22;29884;47.450;19.124;2023-05-07T08:04:47;20.80;99.90
44215;DHT22;29884;47.450;19.124;2023-05-07T08:07:13;20.90;99.90
44215;DHT22;29884;47.450;19.124;2023-05-07T08:09:39;20.90;99.90
44215;DHT22;29884;47.450;19.124;2023-05-07T08:12:05;20.80;99.90
44215;DHT22;29884;47.450;19.124;2023-05-07T08:14:31;20.70;99.90
44215;DHT22;29884;47.450;19.124;2023-05-07T08:16:57;20.70;99.90
44215;DHT22;29884;47.450;19.124;2023-05-07T08:19:23;20.60;99.90
44215;DHT22;29884;47.450;19.124;2023-05-07T08:21:49;20.60;99.90
44215;DHT22;29884;47.450;19.124;2023-05-07T08:24:15;20.60;99.90
44215;DHT22;29884;47.450;19.124;2023-05-07T08:26:41;20.60;99.90
44215;DHT22;29884;47.450;19.124;2023-05-07T08:29:07;20.60;99.90
44215;DHT22;29884;47.450;19.124;2023-05-07T08:31:33;20.60;99.90
44215;DHT22;29884;47.450;19.124;2023-05-07T08:33:59;20.60;99.90
44215;DHT22;29884;47.450;19.124;2023-05-07T08:36:25;20.50;99.90
44215;DHT22;29884;47.450;19.124;2023-05-07T08:38:51;20.50;99.90
44215;DHT22;29884;47.450;19.124;2023-05-07T08:41:17;20.50;99.90
44215;DHT22;29884;47.450;19.124;2023-05-07T08:43:47;20.50;99.90
44215;DHT22;29884;47.450;19.124;2023-05-07T08:46:21;20.60;99.90
44215;DHT22;29884;47.450;19.124;2023-05-07T08:48:51;20.60;99.90
44215;DHT22;29884;47.450;19.124;2023-05-07T08:51:18;20.60;99.90
44215;DHT22;29884;47.450;19.124;2023-05-07T08:53:45;20.60;99.90
44215;DHT22;29884;47.450;19.124;2023-05-07T08:56:11;20.70;99.90
44215;DHT22;29884;47.450;19.124;2023-05-07T08:58:37;20.80;99.90
44215;DHT22;29884;47.450;19.124;2023-05-07T09:01:08;21.00;99.90
44215;DHT22;29884;47.450;19.124;2023-05-07T09:03:38;21.10;99.90
44215;DHT22;29884;47.450;19.124;2023-05-07T09:06:04;20.90;99.90
44215;DHT22;29884;47.450;19.124;2023-05-07T09:08:32;21.00;99.90
44215;DHT22;29884;47.450;19.124;2023-05-07T09:10:59;21.00;99.90
44215;DHT22;29884;47.450;19.124;2023-05-07T09:13:25;21.00;99.90
44215;DHT22;29884;47.450;19.124;2023-05-07T09:15:52;21.20;99.90
44215;DHT22;29884;47.450;19.124;2023-05-07T09:18:18;21.50;99.90
44215;DHT22;29884;47.450;19.124;2023-05-07T09:20:43;21.80;99.90
44215;DHT22;29884;47.450;19.124;2023-05-07T09:23:09;21.90;99.90
44215;DHT22;29884;47.450;19.124;2023-05-07T09:25:36;21.80;99.90
44215;DHT22;29884;47.450;19.124;2023-05-07T09:28:04;22.00;99.90
44215;DHT22;29884;47.450;19.124;2023-05-07T09:30:31;22.20;99.90
44215;DHT22;29884;47.450;19.124;2023-05-07T09:33:01;22.20;99.90
44215;DHT22;29884;47.450;19.124;2023-05-07T09:35:27;22.30;99.90
44215;DHT22;29884;47.450;19.124;2023-05-07T09:37:57;22.40;99.90
44215;DHT22;29884;47.450;19.124;2023-05-07T09:40:29;22.90;99.90
44215;DHT22;29884;47.450;19.124;2023-05-07T09:42:56;22.70;99.90
44215;DHT22;29884;47.450;19.124;2023-05-07T09:45:26;22.40;99.90
44215;DHT22;29884;47.450;19.124;2023-05-07T09:47:56;22.20;99.90
44215;DHT22;29884;47.450;19.124;2023-05-07T09:50:29;22.50;99.90
44215;DHT22;29884;47.450;19.124;2023-05-07T09:52:56;22.70;99.90
44215;DHT22;29884;47.450;19.124;2023-05-07T09:55:22;22.60;99.90
44215;DHT22;29884;47.450;19.124;2023-05-07T09:57:50;22.60;99.90
44215;DHT22;29884;47.450;19.124;2023-05-07T10:00:19;22.60;99.90
44215;DHT22;29884;47.450;19.124;2023-05-07T10:02:47;22.60;99.90
44215;DHT22;29884;47.450;19.124;2023-05-07T10:05:15;22.30;99.90
44215;DHT22;29884;47.450;19.124;2023-05-07T10:07:41;22.20;99.90
44215;DHT22;29884;47.450;19.124;2023-05-07T10:10:07;22.00;99.90
44215;DHT22;29884;47.450;19.124;2023-05-07T10:12:33;22.00;99.90
44215;DHT22;29884;47.450;19.124;2023-05-07T10:15:08;21.90;99.90
44215;DHT22;29884;47.450;19.124;2023-05-07T10:17:38;21.90;99.90
44215;DHT22;29884;47.450;19.124;2023-05-07T10:20:05;21.80;99.90
44215;DHT22;29884;47.450;19.124;2023-05-07T10:22:51;21.70;99.90
44215;DHT22;29884;47.450;19.124;2023-05-07T10:25:31;21.50;99.90
44215;DHT22;29884;47.450;19.124;2023-05-07T10:28:00;21.50;99.90
44215;DHT22;29884;47.450;19.124;2023-05-07T10:30:45;21.50;99.90
44215;DHT22;29884;47.450;19.124;2023-05-07T10:33:17;21.50;99.90
44215;DHT22;29884;47.450;19.124;2023-05-07T10:35:45;21.40;99.90
44215;DHT22;29884;47.450;19.124;2023-05-07T10:38:12;21.10;99.90
44215;DHT22;29884;47.450;19.124;2023-05-07T10:40:38;21.00;99.90
44215;DHT22;29884;47.450;19.124;2023-05-07T10:43:05;21.10;99.90
44215;DHT22;29884;47.450;19.124;2023-05-07T10:45:31;21.10;99.90
44215;DHT22;29884;47.450;19.124;2023-05-07T10:48:16;21.10;99.90
44215;DHT22;29884;47.450;19.124;2023-05-07T10:50:45;21.30;99.90
44215;DHT22;29884;47.450;19.124;2023-05-07T10:55:47;21.50;99.90
44215;DHT22;29884;47.450;19.124;2023-05-07T10:58:29;21.60;99.90
44215;DHT22;29884;47.450;19.124;2023-05-07T11:01:05;21.90;99.90
44215;DHT22;29884;47.450;19.124;2023-05-07T11:03:31;22.10;99.90
44215;DHT22;29884;47.450;19.124;2023-05-07T11:06:13;22.40;99.90
44215;DHT22;29884;47.450;19.124;2023-05-07T11:08:58;22.40;98.70
44215;DHT22;29884;47.450;19.124;2023-05-07T11:11:45;22.50;98.10
44215;DHT22;29884;47.450;19.124;2023-05-07T11:14:58;22.50;98.60
44215;DHT22;29884;47.450;19.124;2023-05-07T11:17:03;22.70;99.30
44215;DHT22;29884;47.450;19.124;2023-05-07T11:19:48;23.10;99.10
44215;DHT22;29884;47.450;19.124;2023-05-07T11:22:44;23.10;99.90
44215;DHT22;29884;47.450;19.124;2023-05-07T11:25:10;23.40;99.90
44215;DHT22;29884;47.450;19.124;2023-05-07T11:27:36;23.40;99.90
44215;DHT22;29884;47.450;19.124;2023-05-07T11:30:02;23.30;99.90
44215;DHT22;29884;47.450;19.124;2023-05-07T11:32:31;23.40;99.90
44215;DHT22;29884;47.450;19.124;2023-05-07T11:34:58;23.80;99.90
44215;DHT22;29884;47.450;19.124;2023-05-07T11:37:25;24.10;99.40
44215;DHT22;29884;47.450;19.124;2023-05-07T11:40:02;24.30;98.80
44215;DHT22;29884;47.450;19.124;2023-05-07T11:44:56;23.80;96.40
44215;DHT22;29884;47.450;19.124;2023-05-07T11:47:22;23.20;98.40
44215;DHT22;29884;47.450;19.124;2023-05-07T11:49:48;23.30;98.60
44215;DHT22;29884;47.450;19.124;2023-05-07T11:52:15;23.70;95.50
44215;DHT22;29884;47.450;19.124;2023-05-07T11:54:41;23.50;95.60
44215;DHT22;29884;47.450;19.124;2023-05-07T11:57:14;23.70;94.30
44215;DHT22;29884;47.450;19.124;2023-05-07T11:59:40;24.30;93.10
44215;DHT22;29884;47.450;19.124;2023-05-07T12:02:07;24.40;91.40
44215;DHT22;29884;47.450;19.124;2023-05-07T12:04:33;24.30;88.80
44215;DHT22;29884;47.450;19.124;2023-05-07T12:06:59;24.30;89.70
44215;DHT22;29884;47.450;19.124;2023-05-07T12:09:25;24.20;89.60
44215;DHT22;29884;47.450;19.124;2023-05-07T12:11:52;23.90;88.60
44215;DHT22;29884;47.450;19.124;2023-05-07T12:14:18;23.70;88.90
44215;DHT22;29884;47.450;19.124;2023-05-07T12:16:44;23.50;87.90
44215;DHT22;29884;47.450;19.124;2023-05-07T12:19:11;23.10;86.90
44215;DHT22;29884;47.450;19.124;2023-05-07T12:21:40;23.10;88.80
44215;DHT22;29884;47.450;19.124;2023-05-07T12:24:06;23.60;88.20
44215;DHT22;29884;47.450;19.124;2023-05-07T12:26:40;23.70;87.20
44215;DHT22;29884;47.450;19.124;2023-05-07T12:29:06;23.30;89.80
44215;DHT22;29884;47.450;19.124;2023-05-07T12:31:32;23.20;90.20
44215;DHT22;29884;47.450;19.124;2023-05-07T12:33:58;23.60;88.70
44215;DHT22;29884;47.450;19.124;2023-05-07T12:36:23;23.70;87.60
44215;DHT22;29884;47.450;19.124;2023-05-07T12:38:51;24.20;85.20
44215;DHT22;29884;47.450;19.124;2023-05-07T12:41:16;24.40;83.30
44215;DHT22;29884;47.450;19.124;2023-05-07T12:43:46;24.30;84.20
44215;DHT22;29884;47.450;19.124;2023-05-07T12:46:12;23.90;83.70
44215;DHT22;29884;47.450;19.124;2023-05-07T12:48:45;23.40;86.80
44215;DHT22;29884;47.450;19.124;2023-05-07T12:51:11;23.40;85.10
44215;DHT22;29884;47.450;19.124;2023-05-07T12:53:42;23.50;85.80
44215;DHT22;29884;47.450;19.124;2023-05-07T12:56:09;23.40;82.80
44215;DHT22;29884;47.450;19.124;2023-05-07T12:58:35;23.30;84.50
44215;DHT22;29884;47.450;19.124;2023-05-07T13:01:05;23.20;84.30
44215;DHT22;29884;47.450;19.124;2023-05-07T13:03:33;23.10;82.40
44215;DHT22;29884;47.450;19.124;2023-05-07T13:06:07;23.10;84.40
44215;DHT22;29884;47.450;19.124;2023-05-07T13:08:38;23.00;84.10
44215;DHT22;29884;47.450;19.124;2023-05-07T13:11:11;23.10;85.70
44215;DHT22;29884;47.450;19.124;2023-05-07T13:13:38;23.10;84.60
44215;DHT22;29884;47.450;19.124;2023-05-07T13:16:07;22.90;83.20
44215;DHT22;29884;47.450;19.124;2023-05-07T13:18:33;22.80;82.50
44215;DHT22;29884;47.450;19.124;2023-05-07T13:21:01;22.90;81.90
44215;DHT22;29884;47.450;19.124;2023-05-07T13:23:27;22.90;81.90
44215;DHT22;29884;47.450;19.124;2023-05-07T13:25:53;22.90;80.80
44215;DHT22;29884;47.450;19.124;2023-05-07T13:28:20;23.40;80.00
44215;DHT22;29884;47.450;19.124;2023-05-07T13:30:46;23.70;79.30
44215;DHT22;29884;47.450;19.124;2023-05-07T13:33:12;23.70;78.90
44215;DHT22;29884;47.450;19.124;2023-05-07T13:35:38;23.60;78.30
44215;DHT22;29884;47.450;19.124;2023-05-07T13:38:05;23.50;78.00
44215;DHT22;29884;47.450;19.124;2023-05-07T13:40:31;23.30;78.80
44215;DHT22;29884;47.450;19.124;2023-05-07T13:43:00;23.10;80.40
44215;DHT22;29884;47.450;19.124;2023-05-07T13:45:30;23.00;81.50
44215;DHT22;29884;47.450;19.124;2023-05-07T13:47:56;22.90;80.30
44215;DHT22;29884;47.450;19.124;2023-05-07T13:50:22;23.00;81.80
44215;DHT22;29884;47.450;19.124;2023-05-07T13:52:48;23.40;79.80
44215;DHT22;29884;47.450;19.124;2023-05-07T13:55:17;23.90;77.50
44215;DHT22;29884;47.450;19.124;2023-05-07T13:57:43;24.10;73.70
44215;DHT22;29884;47.450;19.124;2023-05-07T14:00:10;24.20;72.50
44215;DHT22;29884;47.450;19.124;2023-05-07T14:02:36;24.30;72.60
44215;DHT22;29884;47.450;19.124;2023-05-07T14:05:02;23.90;71.60
44215;DHT22;29884;47.450;19.124;2023-05-07T14:07:28;23.50;74.00
44215;DHT22;29884;47.450;19.124;2023-05-07T14:09:54;23.70;74.50
44215;DHT22;29884;47.450;19.124;2023-05-07T14:12:20;23.90;73.80
44215;DHT22;29884;47.450;19.124;2023-05-07T14:14:45;23.70;74.00
44215;DHT22;29884;47.450;19.124;2023-05-07T14:17:12;23.40;76.90
44215;DHT22;29884;47.450;19.124;2023-05-07T14:19:38;23.30;78.00
44215;DHT22;29884;47.450;19.124;2023-05-07T14:22:04;23.50;75.30
44215;DHT22;29884;47.450;19.124;2023-05-07T14:24:30;23.40;74.30
44215;DHT22;29884;47.450;19.124;2023-05-07T14:26:56;23.40;75.60
44215;DHT22;29884;47.450;19.124;2023-05-07T14:29:21;23.60;75.20
44215;DHT22;29884;47.450;19.124;2023-05-07T14:31:48;23.60;72.70
44215;DHT22;29884;47.450;19.124;2023-05-07T14:34:13;23.80;74.00
44215;DHT22;29884;47.450;19.124;2023-05-07T14:36:39;24.10;70.90
44215;DHT22;29884;47.450;19.124;2023-05-07T14:39:05;24.00;70.40
44215;DHT22;29884;47.450;19.124;2023-05-07T14:41:31;23.80;71.20
44215;DHT22;29884;47.450;19.124;2023-05-07T14:43:58;23.50;73.80
44215;DHT22;29884;47.450;19.124;2023-05-07T14:46:24;23.10;74.20
44215;DHT22;29884;47.450;19.124;2023-05-07T14:48:50;22.90;75.80
44215;DHT22;29884;47.450;19.124;2023-05-07T14:51:15;22.80;76.70
44215;DHT22;29884;47.450;19.124;2023-05-07T14:53:41;22.80;77.90
44215;DHT22;29884;47.450;19.124;2023-05-07T14:56:08;23.00;76.90
44215;DHT22;29884;47.450;19.124;2023-05-07T14:58:34;23.10;74.90
44215;DHT22;29884;47.450;19.124;2023-05-07T15:01:00;23.20;75.60
44215;DHT22;29884;47.450;19.124;2023-05-07T15:03:27;23.20;75.20
44215;DHT22;29884;47.450;19.124;2023-05-07T15:05:53;23.20;78.00
44215;DHT22;29884;47.450;19.124;2023-05-07T15:08:18;23.20;77.50
44215;DHT22;29884;47.450;19.124;2023-05-07T15:10:44;23.40;76.30
44215;DHT22;29884;47.450;19.124;2023-05-07T15:13:11;23.50;75.90
44215;DHT22;29884;47.450;19.124;2023-05-07T15:15:38;23.50;75.00
44215;DHT22;29884;47.450;19.124;2023-05-07T15:18:05;23.40;74.40